sensor_id;sensor_type;location;lat;lon;timestamp;pressure;altitude;pressure_sealevel;temperature
42197;BMP280;27866;48.146;17.098;2023-11-19T00:04:06;100215.97;;;8.21
42197;BMP280;27866;48.146;17.098;2023-11-19T00:08:18;100207.16;;;8.25
42197;BMP280;27866;48.146;17.098;2023-11-19T00:12:29;100199.34;;;8.26
42197;BMP280;27866;48.146;17.098;2023-11-19T00:16:40;100209.31;;;8.32
42197;BMP280;27866;48.146;17.098;2023-11-19T00:20:51;100203.00;;;8.38
42197;BMP280;27866;48.146;17.098;2023-11-19T00:25:03;100188.13;;;8.42
42197;BMP280;27866;48.146;17.098;2023-11-19T00:29:15;100178.91;;;8.54
42197;BMP280;27866;48.146;17.098;2023-11-19T00:33:26;100184.72;;;8.57
42197;BMP280;27866;48.146;17.098;2023-11-19T00:37:37;100187.88;;;8.62
42197;BMP280;27866;48.146;17.098;2023-11-19T00:41:49;100175.41;;;8.69
42197;BMP280;27866;48.146;17.098;2023-11-19T00:46:00;100176.00;;;8.74
42197;BMP280;27866;48.146;17.098;2023-11-19T00:50:11;100183.00;;;8.72
42197;BMP280;27866;48.146;17.098;2023-11-19T00:54:23;100170.50;;;8.65
42197;BMP280;27866;48.146;17.098;2023-11-19T00:58:36;100174.56;;;8.69
42197;BMP280;27866;48.146;17.098;2023-11-19T01:02:48;100153.16;;;8.67
42197;BMP280;27866;48.146;17.098;2023-11-19T01:07:02;100160.09;;;8.67
42197;BMP280;27866;48.146;17.098;2023-11-19T01:11:21;100160.19;;;8.65
42197;BMP280;27866;48.146;17.098;2023-11-19T01:15:32;100153.25;;;8.66
42197;BMP280;27866;48.146;17.098;2023-11-19T01:19:44;100147.28;;;8.65
42197;BMP280;27866;48.146;17.098;2023-11-19T01:23:55;100139.78;;;8.61
42197;BMP280;27866;48.146;17.098;2023-11-19T01:28:06;100132.69;;;8.49
42197;BMP280;27866;48.146;17.098;2023-11-19T01:32:17;100135.69;;;8.57
42197;BMP280;27866;48.146;17.098;2023-11-19T01:36:28;100131.09;;;8.62
42197;BMP280;27866;48.146;17.098;2023-11-19T01:40:39;100128.38;;;8.65
42197;BMP280;27866;48.146;17.098;2023-11-19T01:45:01;100126.97;;;8.59
42197;BMP280;27866;48.146;17.098;2023-11-19T01:49:14;100113.78;;;8.64
42197;BMP280;27866;48.146;17.098;2023-11-19T01:53:27;100104.94;;;8.68
42197;BMP280;27866;48.146;17.098;2023-11-19T01:57:38;100107.72;;;8.65
42197;BMP280;27866;48.146;17.098;2023-11-19T02:01:54;100103.63;;;8.61
42197;BMP280;27866;48.146;17.098;2023-11-19T02:06:06;100088.50;;;8.55
42197;BMP280;27866;48.146;17.098;2023-11-19T02:10:18;100077.75;;;8.47
42197;BMP280;27866;48.146;17.098;2023-11-19T02:14:30;100072.50;;;8.34
42197;BMP280;27866;48.146;17.098;2023-11-19T02:18:41;100077.00;;;8.30
42197;BMP280;27866;48.146;17.098;2023-11-19T02:22:54;100081.50;;;8.27
42197;BMP280;27866;48.146;17.098;2023-11-19T02:27:16;100080.00;;;8.23
42197;BMP280;27866;48.146;17.098;2023-11-19T02:31:28;100062.44;;;8.14
42197;BMP280;27866;48.146;17.098;2023-11-19T02:35:40;100052.13;;;8.14
42197;BMP280;27866;48.146;17.098;2023-11-19T02:39:51;100039.22;;;8.14
42197;BMP280;27866;48.146;17.098;2023-11-19T02:44:03;100033.31;;;8.12
42197;BMP280;27866;48.146;17.098;2023-11-19T02:48:17;100023.59;;;8.17
42197;BMP280;27866;48.146;17.098;2023-11-19T02:52:28;100020.34;;;8.29
42197;BMP280;27866;48.146;17.098;2023-11-19T02:56:42;100016.16;;;8.41
42197;BMP280;27866;48.146;17.098;2023-11-19T03:00:55;100002.72;;;8.50
42197;BMP280;27866;48.146;17.098;2023-11-19T03:05:12;100000.44;;;8.46
42197;BMP280;27866;48.146;17.098;2023-11-19T03:09:25;99998.50;;;8.49
42197;BMP280;27866;48.146;17.098;2023-11-19T03:13:37;99992.25;;;8.53
42197;BMP280;27866;48.146;17.098;2023-11-19T03:17:48;99990.22;;;8.58
42197;BMP280;27866;48.146;17.098;2023-11-19T03:21:59;99975.22;;;8.64
42197;BMP280;27866;48.146;17.098;2023-11-19T03:26:12;99964.91;;;8.64
42197;BMP280;27866;48.146;17.098;2023-11-19T03:30:24;99966.84;;;8.61
42197;BMP280;27866;48.146;17.098;2023-11-19T03:34:35;99949.72;;;8.73
42197;BMP280;27866;48.146;17.098;2023-11-19T03:38:46;99955.22;;;8.68
42197;BMP280;27866;48.146;17.098;2023-11-19T03:42:58;99953.03;;;8.75
42197;BMP280;27866;48.146;17.098;2023-11-19T03:47:09;99956.00;;;8.83
42197;BMP280;27866;48.146;17.098;2023-11-19T03:51:21;99971.50;;;8.83
42197;BMP280;27866;48.146;17.098;2023-11-19T03:55:32;99957.75;;;8.82
42197;BMP280;27866;48.146;17.098;2023-11-19T03:59:44;99969.31;;;8.91
42197;BMP280;27866;48.146;17.098;2023-11-19T04:03:55;99965.44;;;8.97
42197;BMP280;27866;48.146;17.098;2023-11-19T04:08:06;99960.09;;;9.00
42197;BMP280;27866;48.146;17.098;2023-11-19T04:12:17;99948.84;;;9.01
42197;BMP280;27866;48.146;17.098;2023-11-19T04:16:29;99934.81;;;8.92
42197;BMP280;27866;48.146;17.098;2023-11-19T04:20:41;99926.72;;;8.84
42197;BMP280;27866;48.146;17.098;2023-11-19T04:24:53;99924.50;;;8.78
42197;BMP280;27866;48.146;17.098;2023-11-19T04:29:04;99921.78;;;8.66
42197;BMP280;27866;48.146;17.098;2023-11-19T04:33:15;99916.41;;;8.69
42197;BMP280;27866;48.146;17.098;2023-11-19T04:37:26;99908.63;;;8.70
42197;BMP280;27866;48.146;17.098;2023-11-19T04:41:49;99908.25;;;8.76
42197;BMP280;27866;48.146;17.098;2023-11-19T04:46:03;99914.31;;;8.75
42197;BMP280;27866;48.146;17.098;2023-11-19T04:50:14;99927.50;;;8.84
42197;BMP280;27866;48.146;17.098;2023-11-19T04:54:25;99909.38;;;8.86
42197;BMP280;27866;48.146;17.098;2023-11-19T04:58:36;99895.91;;;8.81
42197;BMP280;27866;48.146;17.098;2023-11-19T05:02:48;99885.31;;;8.85
42197;BMP280;27866;48.146;17.098;2023-11-19T05:06:59;99881.41;;;8.79
42197;BMP280;27866;48.146;17.098;2023-11-19T05:11:10;99882.25;;;8.79
42197;BMP280;27866;48.146;17.098;2023-11-19T05:15:23;99892.94;;;8.73
42197;BMP280;27866;48.146;17.098;2023-11-19T05:19:34;99881.84;;;8.71
42197;BMP280;27866;48.146;17.098;2023-11-19T05:23:45;99882.97;;;8.68
42197;BMP280;27866;48.146;17.098;2023-11-19T05:27:57;99872.47;;;8.70
42197;BMP280;27866;48.146;17.098;2023-11-19T05:32:09;99877.88;;;8.53
42197;BMP280;27866;48.146;17.098;2023-11-19T05:36:20;99877.78;;;8.40
42197;BMP280;27866;48.146;17.098;2023-11-19T05:40:31;99865.78;;;8.39
42197;BMP280;27866;48.146;17.098;2023-11-19T05:44:43;99863.50;;;8.20
42197;BMP280;27866;48.146;17.098;2023-11-19T05:48:54;99858.38;;;8.05
42197;BMP280;27866;48.146;17.098;2023-11-19T05:53:06;99848.91;;;8.06
42197;BMP280;27866;48.146;17.098;2023-11-19T05:57:19;99838.78;;;8.03
42197;BMP280;27866;48.146;17.098;2023-11-19T06:01:35;99835.84;;;8.09
42197;BMP280;27866;48.146;17.098;2023-11-19T06:05:46;99833.44;;;8.06
42197;BMP280;27866;48.146;17.098;2023-11-19T06:09:57;99830.47;;;7.98
42197;BMP280;27866;48.146;17.098;2023-11-19T06:14:08;99816.66;;;7.99
42197;BMP280;27866;48.146;17.098;2023-11-19T06:18:19;99815.56;;;7.88
42197;BMP280;27866;48.146;17.098;2023-11-19T06:22:30;99818.97;;;7.88
42197;BMP280;27866;48.146;17.098;2023-11-19T06:26:42;99808.75;;;7.87
42197;BMP280;27866;48.146;17.098;2023-11-19T06:30:53;99803.06;;;7.82
42197;BMP280;27866;48.146;17.098;2023-11-19T06:35:04;99812.97;;;7.74
42197;BMP280;27866;48.146;17.098;2023-11-19T06:39:16;99817.97;;;7.62
42197;BMP280;27866;48.146;17.098;2023-11-19T06:43:28;99813.34;;;7.67
42197;BMP280;27866;48.146;17.098;2023-11-19T06:47:39;99826.66;;;7.75
42197;BMP280;27866;48.146;17.098;2023-11-19T06:51:51;99820.25;;;7.81
42197;BMP280;27866;48.146;17.098;2023-11-19T06:56:03;99823.03;;;7.92
42197;BMP280;27866;48.146;17.098;2023-11-19T07:00:17;99822.31;;;7.90
42197;BMP280;27866;48.146;17.098;2023-11-19T07:04:29;99825.97;;;8.01
42197;BMP280;27866;48.146;17.098;2023-11-19T07:08:43;99823.53;;;8.13
42197;BMP280;27866;48.146;17.098;2023-11-19T07:12:57;99812.63;;;8.09
42197;BMP280;27866;48.146;17.098;2023-11-19T07:17:08;99783.16;;;8.12
42197;BMP280;27866;48.146;17.098;2023-11-19T07:21:21;99776.66;;;8.21
42197;BMP280;27866;48.146;17.098;2023-11-19T07:25:34;99779.97;;;8.23
42197;BMP280;27866;48.146;17.098;2023-11-19T07:29:47;99780.25;;;8.32
42197;BMP280;27866;48.146;17.098;2023-11-19T07:33:58;99769.56;;;8.24
42197;BMP280;27866;48.146;17.098;2023-11-19T07:38:10;99766.63;;;8.30
42197;BMP280;27866;48.146;17.098;2023-11-19T07:42:21;99758.50;;;8.36
42197;BMP280;27866;48.146;17.098;2023-11-19T07:46:32;99742.78;;;8.40
42197;BMP280;27866;48.146;17.098;2023-11-19T07:50:43;99729.22;;;8.50
42197;BMP280;27866;48.146;17.098;2023-11-19T07:54:55;99744.53;;;8.53
42197;BMP280;27866;48.146;17.098;2023-11-19T07:59:06;99753.47;;;8.61
42197;BMP280;27866;48.146;17.098;2023-11-19T08:03:17;99741.56;;;8.72
42197;BMP280;27866;48.146;17.098;2023-11-19T08:07:29;99739.00;;;8.59
42197;BMP280;27866;48.146;17.098;2023-11-19T08:11:41;99734.19;;;8.80
42197;BMP280;27866;48.146;17.098;2023-11-19T08:15:53;99727.25;;;8.81
42197;BMP280;27866;48.146;17.098;2023-11-19T08:20:04;99721.72;;;8.73
42197;BMP280;27866;48.146;17.098;2023-11-19T08:24:21;99703.25;;;8.92
42197;BMP280;27866;48.146;17.098;2023-11-19T08:28:32;99713.78;;;8.89
42197;BMP280;27866;48.146;17.098;2023-11-19T08:32:45;99710.09;;;9.44
42197;BMP280;27866;48.146;17.098;2023-11-19T08:36:56;99721.91;;;9.48
42197;BMP280;27866;48.146;17.098;2023-11-19T08:41:07;99727.16;;;9.47
42197;BMP280;27866;48.146;17.098;2023-11-19T08:45:18;99741.59;;;9.63
42197;BMP280;27866;48.146;17.098;2023-11-19T08:49:30;99750.81;;;9.67
42197;BMP280;27866;48.146;17.098;2023-11-19T08:53:41;99740.41;;;9.55
42197;BMP280;27866;48.146;17.098;2023-11-19T08:57:52;99743.34;;;9.37
42197;BMP280;27866;48.146;17.098;2023-11-19T09:02:05;99725.81;;;9.16
42197;BMP280;27866;48.146;17.098;2023-11-19T09:06:16;99723.88;;;9.57
42197;BMP280;27866;48.146;17.098;2023-11-19T09:10:27;99707.28;;;9.73
42197;BMP280;27866;48.146;17.098;2023-11-19T09:14:40;99702.50;;;9.67
42197;BMP280;27866;48.146;17.098;2023-11-19T09:18:52;99699.72;;;9.70
42197;BMP280;27866;48.146;17.098;2023-11-19T09:23:06;99694.41;;;9.85
42197;BMP280;27866;48.146;17.098;2023-11-19T09:27:19;99680.31;;;9.77
42197;BMP280;27866;48.146;17.098;2023-11-19T09:31:31;99682.72;;;10.04
42197;BMP280;27866;48.146;17.098;2023-11-19T09:35:43;99683.13;;;10.22
42197;BMP280;27866;48.146;17.098;2023-11-19T09:39:55;99670.72;;;10.27
42197;BMP280;27866;48.146;17.098;2023-11-19T09:44:06;99668.88;;;10.05
42197;BMP280;27866;48.146;17.098;2023-11-19T09:48:18;99669.28;;;10.23
42197;BMP280;27866;48.146;17.098;2023-11-19T09:52:29;99666.78;;;10.10
42197;BMP280;27866;48.146;17.098;2023-11-19T09:56:42;99658.19;;;10.21
42197;BMP280;27866;48.146;17.098;2023-11-19T10:00:53;99649.91;;;10.41
42197;BMP280;27866;48.146;17.098;2023-11-19T10:05:07;99653.03;;;10.21
42197;BMP280;27866;48.146;17.098;2023-11-19T10:09:18;99638.53;;;10.19
42197;BMP280;27866;48.146;17.098;2023-11-19T10:13:30;99640.09;;;9.97
42197;BMP280;27866;48.146;17.098;2023-11-19T10:17:41;99621.47;;;9.92
42197;BMP280;27866;48.146;17.098;2023-11-19T10:21:52;99620.84;;;10.25
42197;BMP280;27866;48.146;17.098;2023-11-19T10:26:04;99621.19;;;10.43
42197;BMP280;27866;48.146;17.098;2023-11-19T10:30:28;99612.00;;;10.40
42197;BMP280;27866;48.146;17.098;2023-11-19T10:34:40;99598.75;;;10.32
42197;BMP280;27866;48.146;17.098;2023-11-19T10:38:55;99604.66;;;10.34
42197;BMP280;27866;48.146;17.098;2023-11-19T10:43:06;99606.16;;;10.01
42197;BMP280;27866;48.146;17.098;2023-11-19T10:47:19;99607.91;;;9.89
42197;BMP280;27866;48.146;17.098;2023-11-19T10:51:32;99602.13;;;10.10
42197;BMP280;27866;48.146;17.098;2023-11-19T10:55:47;99597.06;;;10.08
42197;BMP280;27866;48.146;17.098;2023-11-19T11:00:02;99585.25;;;9.68
42197;BMP280;27866;48.146;17.098;2023-11-19T11:04:24;99573.78;;;9.72
42197;BMP280;27866;48.146;17.098;2023-11-19T11:08:37;99579.19;;;9.93
42197;BMP280;27866;48.146;17.098;2023-11-19T11:12:50;99580.44;;;9.88
42197;BMP280;27866;48.146;17.098;2023-11-19T11:17:08;99569.22;;;9.99
42197;BMP280;27866;48.146;17.098;2023-11-19T11:21:24;99555.91;;;10.28
42197;BMP280;27866;48.146;17.098;2023-11-19T11:30:46;99545.44;;;10.87
42197;BMP280;27866;48.146;17.098;2023-11-19T11:39:22;99545.81;;;10.93
42197;BMP280;27866;48.146;17.098;2023-11-19T11:43:51;99542.41;;;10.93
42197;BMP280;27866;48.146;17.098;2023-11-19T11:48:15;99527.00;;;11.25
42197;BMP280;27866;48.146;17.098;2023-11-19T11:52:29;99523.22;;;11.29
42197;BMP280;27866;48.146;17.098;2023-11-19T11:56:41;99532.78;;;11.05
42197;BMP280;27866;48.146;17.098;2023-11-19T12:00:52;99509.56;;;10.93
42197;BMP280;27866;48.146;17.098;2023-11-19T12:05:06;99512.00;;;10.84
42197;BMP280;27866;48.146;17.098;2023-11-19T12:09:19;99513.31;;;10.89
42197;BMP280;27866;48.146;17.098;2023-11-19T12:13:52;99498.50;;;11.02
42197;BMP280;27866;48.146;17.098;2023-11-19T12:18:04;99502.19;;;11.10
42197;BMP280;27866;48.146;17.098;2023-11-19T12:22:16;99496.56;;;11.16
42197;BMP280;27866;48.146;17.098;2023-11-19T12:26:36;99490.53;;;11.15
42197;BMP280;27866;48.146;17.098;2023-11-19T12:30:48;99475.16;;;10.91
42197;BMP280;27866;48.146;17.098;2023-11-19T12:34:59;99472.81;;;10.66
42197;BMP280;27866;48.146;17.098;2023-11-19T12:39:11;99478.25;;;10.63
42197;BMP280;27866;48.146;17.098;2023-11-19T12:43:23;99486.03;;;10.73
42197;BMP280;27866;48.146;17.098;2023-11-19T12:47:35;99472.75;;;10.78
42197;BMP280;27866;48.146;17.098;2023-11-19T12:51:46;99472.72;;;11.00
42197;BMP280;27866;48.146;17.098;2023-11-19T12:56:08;99470.34;;;10.98
42197;BMP280;27866;48.146;17.098;2023-11-19T13:00:24;99471.78;;;11.01
42197;BMP280;27866;48.146;17.098;2023-11-19T13:04:36;99456.34;;;11.00
42197;BMP280;27866;48.146;17.098;2023-11-19T13:08:50;99473.28;;;10.93
42197;BMP280;27866;48.146;17.098;2023-11-19T13:13:08;99467.03;;;10.96
42197;BMP280;27866;48.146;17.098;2023-11-19T13:17:19;99462.56;;;10.98
42197;BMP280;27866;48.146;17.098;2023-11-19T13:21:32;99456.59;;;10.97
42197;BMP280;27866;48.146;17.098;2023-11-19T13:25:43;99458.09;;;10.89
42197;BMP280;27866;48.146;17.098;2023-11-19T13:29:56;99450.38;;;10.77
42197;BMP280;27866;48.146;17.098;2023-11-19T13:34:07;99453.28;;;10.62
42197;BMP280;27866;48.146;17.098;2023-11-19T13:38:18;99455.41;;;10.68
42197;BMP280;27866;48.146;17.098;2023-11-19T13:42:30;99453.19;;;10.63
42197;BMP280;27866;48.146;17.098;2023-11-19T13:46:41;99457.53;;;10.63
42197;BMP280;27866;48.146;17.098;2023-11-19T13:50:52;99471.00;;;10.78
42197;BMP280;27866;48.146;17.098;2023-11-19T13:55:05;99455.06;;;10.61
42197;BMP280;27866;48.146;17.098;2023-11-19T13:59:17;99449.50;;;10.55
42197;BMP280;27866;48.146;17.098;2023-11-19T14:03:28;99445.00;;;10.46
42197;BMP280;27866;48.146;17.098;2023-11-19T14:07:40;99459.53;;;10.37
42197;BMP280;27866;48.146;17.098;2023-11-19T14:11:52;99461.59;;;10.32
42197;BMP280;27866;48.146;17.098;2023-11-19T14:16:04;99451.78;;;10.37
42197;BMP280;27866;48.146;17.098;2023-11-19T14:20:17;99455.59;;;10.54
42197;BMP280;27866;48.146;17.098;2023-11-19T14:24:28;99477.69;;;10.47
42197;BMP280;27866;48.146;17.098;2023-11-19T14:28:39;99450.25;;;10.22
42197;BMP280;27866;48.146;17.098;2023-11-19T14:32:50;99454.06;;;10.06
42197;BMP280;27866;48.146;17.098;2023-11-19T14:37:02;99453.19;;;9.95
42197;BMP280;27866;48.146;17.098;2023-11-19T14:41:13;99457.81;;;9.90
42197;BMP280;27866;48.146;17.098;2023-11-19T14:45:24;99449.78;;;9.83
42197;BMP280;27866;48.146;17.098;2023-11-19T14:49:36;99451.63;;;9.93
42197;BMP280;27866;48.146;17.098;2023-11-19T14:53:47;99465.47;;;9.92
42197;BMP280;27866;48.146;17.098;2023-11-19T14:57:59;99467.44;;;9.88
42197;BMP280;27866;48.146;17.098;2023-11-19T15:02:10;99456.63;;;9.84
42197;BMP280;27866;48.146;17.098;2023-11-19T15:06:25;99455.91;;;9.82
42197;BMP280;27866;48.146;17.098;2023-11-19T15:10:42;99462.63;;;9.84
42197;BMP280;27866;48.146;17.098;2023-11-19T15:14:53;99469.63;;;9.70
42197;BMP280;27866;48.146;17.098;2023-11-19T15:19:04;99471.72;;;9.77
42197;BMP280;27866;48.146;17.098;2023-11-19T15:23:16;99479.88;;;9.84
42197;BMP280;27866;48.146;17.098;2023-11-19T15:27:27;99483.38;;;9.83
42197;BMP280;27866;48.146;17.098;2023-11-19T15:31:39;99470.25;;;9.85
42197;BMP280;27866;48.146;17.098;2023-11-19T15:35:51;99482.97;;;9.88
42197;BMP280;27866;48.146;17.098;2023-11-19T15:40:03;99470.25;;;9.85
42197;BMP280;27866;48.146;17.098;2023-11-19T15:44:16;99463.53;;;9.83
42197;BMP280;27866;48.146;17.098;2023-11-19T15:48:27;99459.81;;;9.63
42197;BMP280;27866;48.146;17.098;2023-11-19T15:52:39;99479.91;;;9.59
42197;BMP280;27866;48.146;17.098;2023-11-19T15:56:50;99476.91;;;9.65
42197;BMP280;27866;48.146;17.098;2023-11-19T16:01:01;99478.94;;;9.60
42197;BMP280;27866;48.146;17.098;2023-11-19T16:05:12;99471.50;;;9.68
42197;BMP280;27866;48.146;17.098;2023-11-19T16:09:24;99452.41;;;9.46
42197;BMP280;27866;48.146;17.098;2023-11-19T16:13:38;99444.13;;;9.41
42197;BMP280;27866;48.146;17.098;2023-11-19T16:17:49;99452.09;;;9.26
42197;BMP280;27866;48.146;17.098;2023-11-19T16:22:00;99448.16;;;9.09
42197;BMP280;27866;48.146;17.098;2023-11-19T16:26:20;99432.28;;;9.03
42197;BMP280;27866;48.146;17.098;2023-11-19T16:30:31;99421.94;;;9.03
42197;BMP280;27866;48.146;17.098;2023-11-19T16:34:42;99405.00;;;9.11
42197;BMP280;27866;48.146;17.098;2023-11-19T16:38:53;99397.78;;;9.16
42197;BMP280;27866;48.146;17.098;2023-11-19T16:43:06;99423.91;;;9.12
42197;BMP280;27866;48.146;17.098;2023-11-19T16:47:17;99417.19;;;9.21
42197;BMP280;27866;48.146;17.098;2023-11-19T16:51:28;99418.31;;;9.05
42197;BMP280;27866;48.146;17.098;2023-11-19T16:55:39;99410.97;;;8.99
42197;BMP280;27866;48.146;17.098;2023-11-19T16:59:50;99411.31;;;8.95
42197;BMP280;27866;48.146;17.098;2023-11-19T17:04:06;99425.66;;;8.99
42197;BMP280;27866;48.146;17.098;2023-11-19T17:08:18;99420.72;;;9.08
42197;BMP280;27866;48.146;17.098;2023-11-19T17:12:30;99416.78;;;9.27
42197;BMP280;27866;48.146;17.098;2023-11-19T17:16:41;99416.34;;;9.33
42197;BMP280;27866;48.146;17.098;2023-11-19T17:20:53;99419.47;;;9.26
42197;BMP280;27866;48.146;17.098;2023-11-19T17:25:07;99428.56;;;9.31
42197;BMP280;27866;48.146;17.098;2023-11-19T17:29:20;99422.84;;;9.38
42197;BMP280;27866;48.146;17.098;2023-11-19T17:33:32;99414.06;;;9.41
42197;BMP280;27866;48.146;17.098;2023-11-19T17:37:43;99424.00;;;9.34
42197;BMP280;27866;48.146;17.098;2023-11-19T17:41:55;99423.16;;;9.34
42197;BMP280;27866;48.146;17.098;2023-11-19T17:46:06;99438.06;;;9.42
42197;BMP280;27866;48.146;17.098;2023-11-19T17:50:18;99437.00;;;9.45
42197;BMP280;27866;48.146;17.098;2023-11-19T17:54:29;99424.19;;;9.31
42197;BMP280;27866;48.146;17.098;2023-11-19T17:58:40;99434.53;;;9.31
42197;BMP280;27866;48.146;17.098;2023-11-19T18:02:51;99431.97;;;9.19
42197;BMP280;27866;48.146;17.098;2023-11-19T18:07:03;99437.44;;;9.03
42197;BMP280;27866;48.146;17.098;2023-11-19T18:11:14;99433.72;;;8.95
42197;BMP280;27866;48.146;17.098;2023-11-19T18:15:25;99441.78;;;9.02
42197;BMP280;27866;48.146;17.098;2023-11-19T18:19:37;99432.59;;;8.98
42197;BMP280;27866;48.146;17.098;2023-11-19T18:23:48;99433.81;;;9.05
42197;BMP280;27866;48.146;17.098;2023-11-19T18:27:59;99442.59;;;9.27
42197;BMP280;27866;48.146;17.098;2023-11-19T18:32:10;99435.16;;;9.35
42197;BMP280;27866;48.146;17.098;2023-11-19T18:36:23;99426.06;;;9.29
42197;BMP280;27866;48.146;17.098;2023-11-19T18:40:35;99426.47;;;9.36
42197;BMP280;27866;48.146;17.098;2023-11-19T18:44:46;99434.09;;;9.37
42197;BMP280;27866;48.146;17.098;2023-11-19T18:48:58;99430.31;;;9.30
42197;BMP280;27866;48.146;17.098;2023-11-19T18:53:10;99431.03;;;9.32
42197;BMP280;27866;48.146;17.098;2023-11-19T18:57:21;99435.16;;;9.23
42197;BMP280;27866;48.146;17.098;2023-11-19T19:01:32;99428.78;;;9.16
42197;BMP280;27866;48.146;17.098;2023-11-19T19:05:43;99421.00;;;9.04
42197;BMP280;27866;48.146;17.098;2023-11-19T19:09:55;99407.16;;;8.93
42197;BMP280;27866;48.146;17.098;2023-11-19T19:14:07;99400.25;;;8.81
42197;BMP280;27866;48.146;17.098;2023-11-19T19:18:18;99404.34;;;8.71
42197;BMP280;27866;48.146;17.098;2023-11-19T19:22:30;99409.53;;;8.71
42197;BMP280;27866;48.146;17.098;2023-11-19T19:26:41;99406.94;;;8.71
42197;BMP280;27866;48.146;17.098;2023-11-19T19:30:52;99429.97;;;8.74
42197;BMP280;27866;48.146;17.098;2023-11-19T19:35:04;99430.16;;;8.71
42197;BMP280;27866;48.146;17.098;2023-11-19T19:39:16;99435.25;;;8.85
42197;BMP280;27866;48.146;17.098;2023-11-19T19:43:28;99432.38;;;9.01
42197;BMP280;27866;48.146;17.098;2023-11-19T19:47:40;99433.22;;;9.14
42197;BMP280;27866;48.146;17.098;2023-11-19T19:51:52;99441.03;;;9.25
42197;BMP280;27866;48.146;17.098;2023-11-19T19:56:04;99436.50;;;9.28
42197;BMP280;27866;48.146;17.098;2023-11-19T20:00:16;99423.78;;;9.13
42197;BMP280;27866;48.146;17.098;2023-11-19T20:04:27;99459.13;;;9.00
42197;BMP280;27866;48.146;17.098;2023-11-19T20:08:39;99477.63;;;9.19
42197;BMP280;27866;48.146;17.098;2023-11-19T20:12:51;99467.91;;;9.34
42197;BMP280;27866;48.146;17.098;2023-11-19T20:17:02;99490.03;;;9.26
42197;BMP280;27866;48.146;17.098;2023-11-19T20:21:13;99494.25;;;9.15
42197;BMP280;27866;48.146;17.098;2023-11-19T20:25:25;99477.31;;;9.11
42197;BMP280;27866;48.146;17.098;2023-11-19T20:29:36;99468.09;;;9.07
42197;BMP280;27866;48.146;17.098;2023-11-19T20:33:47;99451.34;;;8.88
42197;BMP280;27866;48.146;17.098;2023-11-19T20:37:59;99434.09;;;8.77
42197;BMP280;27866;48.146;17.098;2023-11-19T20:42:10;99423.38;;;8.95
42197;BMP280;27866;48.146;17.098;2023-11-19T20:46:21;99427.50;;;9.09
42197;BMP280;27866;48.146;17.098;2023-11-19T20:50:33;99402.00;;;9.17
42197;BMP280;27866;48.146;17.098;2023-11-19T20:54:45;99388.38;;;9.15
42197;BMP280;27866;48.146;17.098;2023-11-19T20:58:58;99399.53;;;9.15
42197;BMP280;27866;48.146;17.098;2023-11-19T21:03:10;99390.53;;;9.21
42197;BMP280;27866;48.146;17.098;2023-11-19T21:07:21;99385.16;;;9.12
42197;BMP280;27866;48.146;17.098;2023-11-19T21:11:32;99381.03;;;8.85
42197;BMP280;27866;48.146;17.098;2023-11-19T21:15:44;99396.28;;;8.64
42197;BMP280;27866;48.146;17.098;2023-11-19T21:19:58;99404.75;;;8.66
42197;BMP280;27866;48.146;17.098;2023-11-19T21:24:09;99408.00;;;8.81
42197;BMP280;27866;48.146;17.098;2023-11-19T21:28:22;99403.56;;;8.95
42197;BMP280;27866;48.146;17.098;2023-11-19T21:32:37;99393.25;;;8.95
42197;BMP280;27866;48.146;17.098;2023-11-19T21:36:48;99412.22;;;8.70
42197;BMP280;27866;48.146;17.098;2023-11-19T21:41:00;99425.28;;;8.55
42197;BMP280;27866;48.146;17.098;2023-11-19T21:45:12;99407.25;;;8.55
42197;BMP280;27866;48.146;17.098;2023-11-19T21:49:23;99402.81;;;8.57
42197;BMP280;27866;48.146;17.098;2023-11-19T21:53:34;99390.13;;;8.78
42197;BMP280;27866;48.146;17.098;2023-11-19T21:57:46;99400.66;;;8.99
42197;BMP280;27866;48.146;17.098;2023-11-19T22:01:57;99400.44;;;9.14
42197;BMP280;27866;48.146;17.098;2023-11-19T22:06:09;99396.41;;;9.23
42197;BMP280;27866;48.146;17.098;2023-11-19T22:10:21;99381.00;;;9.33
42197;BMP280;27866;48.146;17.098;2023-11-19T22:14:32;99382.16;;;9.17
42197;BMP280;27866;48.146;17.098;2023-11-19T22:18:46;99374.22;;;9.08
42197;BMP280;27866;48.146;17.098;2023-11-19T22:22:57;99381.44;;;9.03
42197;BMP280;27866;48.146;17.098;2023-11-19T22:27:08;99386.81;;;9.12
42197;BMP280;27866;48.146;17.098;2023-11-19T22:31:21;99399.94;;;9.22
42197;BMP280;27866;48.146;17.098;2023-11-19T22:35:32;99370.66;;;9.33
42197;BMP280;27866;48.146;17.098;2023-11-19T22:39:43;99347.34;;;9.23
42197;BMP280;27866;48.146;17.098;2023-11-19T22:43:55;99353.94;;;9.14
42197;BMP280;27866;48.146;17.098;2023-11-19T22:48:06;99353.66;;;9.19
42197;BMP280;27866;48.146;17.098;2023-11-19T22:52:18;99364.69;;;9.33
42197;BMP280;27866;48.146;17.098;2023-11-19T22:56:29;99401.00;;;9.54
42197;BMP280;27866;48.146;17.098;2023-11-19T23:00:40;99429.31;;;9.68
42197;BMP280;27866;48.146;17.098;2023-11-19T23:04:51;99482.16;;;9.76
42197;BMP280;27866;48.146;17.098;2023-11-19T23:09:03;99464.28;;;9.49
42197;BMP280;27866;48.146;17.098;2023-11-19T23:13:16;99454.53;;;9.64
42197;BMP280;27866;48.146;17.098;2023-11-19T23:17:27;99442.28;;;9.55
42197;BMP280;27866;48.146;17.098;2023-11-19T23:21:39;99432.44;;;9.60
42197;BMP280;27866;48.146;17.098;2023-11-19T23:25:54;99394.84;;;9.44
42197;BMP280;27866;48.146;17.098;2023-11-19T23:30:06;99377.97;;;9.39
42197;BMP280;27866;48.146;17.098;2023-11-19T23:34:18;99351.53;;;9.36
42197;BMP280;27866;48.146;17.098;2023-11-19T23:38:29;99344.75;;;9.23
42197;BMP280;27866;48.146;17.098;2023-11-19T23:42:41;99348.06;;;9.12
42197;BMP280;27866;48.146;17.098;2023-11-19T23:46:54;99333.31;;;9.02
42197;BMP280;27866;48.146;17.098;2023-11-19T23:51:06;99337.47;;;8.93
42197;BMP280;27866;48.146;17.098;2023-11-19T23:55:17;99315.47;;;8.87
42197;BMP280;27866;48.146;17.098;2023-11-19T23:59:28;99305.44;;;8.71
